Terminal Aerodrome Forecast
Issued by NWS

Current Version | Previous Version | Text Only | Print | Product List | Glossary Off
Versions: 1 2 3 4 5 6 7 8 9 10 11 12 13 14 15 16 17 18 19 20 21 22 23 24 25 26 27 28 29 30 31 32 33 34 35

108
FTUS41 KRNK 180133 AAA
TAFLWB
TAF AMD
KLWB 180133Z 1802/1824 24007KT 5SM -RA OVC020
     FM180600 27008KT P6SM OVC020
      TEMPO 1806/1808 4SM BR OVC008
     FM181500 29010G26KT P6SM BKN020
     FM182100 30009KT P6SM SCT035=

USA.gov is the U.S. government's official web portal to all federal, state and local government web resources and services.